Time;durP1;ratioP1;P1;durP2;ratioP2;P2;SDS_P1;SDS_P2;PMS_P1;PMS_P2;Temp;Humidity;BMP_temperature;BMP_pressure;BME280_temperature;BME280_humidity;BME280_pressure;Samples;Min_cycle;Max_cycle;Signal;HPM_P1;HPM_P2
2024/03/29 00:00:10;;;;;;;3.95;2.80;;;11.50;99.90;;;;;;5025375;28;20049;-83
2024/03/29 00:02:35;;;;;;;7.35;2.97;;;11.50;99.90;;;;;;5024840;28;20013;-84
2024/03/29 00:05:03;;;;;;;7.75;3.03;;;11.50;99.90;;;;;;5023986;28;20060;-84
2024/03/29 00:07:28;;;;;;;8.55;3.20;;;11.50;99.90;;;;;;5024631;28;20057;-85
2024/03/29 00:09:54;;;;;;;8.60;2.80;;;11.50;99.90;;;;;;5025923;28;20026;-83
2024/03/29 00:12:19;;;;;;;5.30;2.80;;;11.50;99.90;;;;;;5024779;28;20018;-84
2024/03/29 00:14:45;;;;;;;9.07;3.30;;;11.50;99.90;;;;;;5024495;28;20013;-83
2024/03/29 00:17:10;;;;;;;3.45;2.30;;;11.50;99.90;;;;;;5024866;28;20028;-83
2024/03/29 00:19:36;;;;;;;5.35;2.83;;;11.50;99.90;;;;;;5024977;28;20396;-83
2024/03/29 00:22:01;;;;;;;4.70;2.83;;;11.50;99.90;;;;;;5025981;28;20389;-85
2024/03/29 00:24:27;;;;;;;8.05;3.00;;;11.50;99.90;;;;;;5026399;28;20491;-84
2024/03/29 00:26:53;;;;;;;6.63;3.70;;;11.50;99.90;;;;;;5026417;28;20030;-84
2024/03/29 00:29:18;;;;;;;7.00;3.63;;;11.50;99.90;;;;;;5025025;28;20553;-84
2024/03/29 00:31:44;;;;;;;5.25;2.78;;;11.50;99.90;;;;;;5025095;28;20067;-83
2024/03/29 00:34:09;;;;;;;8.10;2.50;;;11.50;99.90;;;;;;5026286;28;20052;-86
2024/03/29 00:36:35;;;;;;;5.55;2.72;;;11.50;99.90;;;;;;5025090;28;20694;-83
2024/03/29 00:39:00;;;;;;;7.32;3.15;;;11.40;99.90;;;;;;5026315;28;20030;-83
2024/03/29 00:41:26;;;;;;;7.70;3.30;;;11.40;99.90;;;;;;5026071;28;20026;-84
2024/03/29 00:43:51;;;;;;;8.77;3.40;;;11.40;99.90;;;;;;5024663;28;20030;-85
2024/03/29 00:46:17;;;;;;;6.18;2.55;;;11.40;99.90;;;;;;5024454;28;20032;-84
2024/03/29 00:48:46;;;;;;;5.20;2.83;;;11.40;99.90;;;;;;5023679;28;20014;-84
2024/03/29 00:51:12;;;;;;;7.47;3.20;;;11.40;99.90;;;;;;5024952;28;20014;-85
2024/03/29 00:53:37;;;;;;;6.50;2.78;;;11.40;99.90;;;;;;5026003;28;20022;-85
2024/03/29 00:56:03;;;;;;;5.05;2.63;;;11.40;99.90;;;;;;5039929;28;20033;-85
2024/03/29 00:58:29;;;;;;;9.23;3.05;;;11.40;99.90;;;;;;5016065;28;20109;-83
2024/03/29 01:00:54;;;;;;;5.70;2.95;;;11.40;99.90;;;;;;5012390;28;20113;-85
2024/03/29 01:03:20;;;;;;;4.57;2.42;;;11.40;99.90;;;;;;5011278;28;20522;-85
2024/03/29 01:05:45;;;;;;;6.25;2.38;;;11.40;99.90;;;;;;5010437;28;20091;-85
2024/03/29 01:08:11;;;;;;;3.50;2.30;;;11.40;99.90;;;;;;5012172;28;20017;-86
2024/03/29 01:10:36;;;;;;;10.63;2.50;;;11.40;99.90;;;;;;5012160;28;20014;-86
2024/03/29 01:13:02;;;;;;;3.75;2.35;;;11.40;99.90;;;;;;5013132;28;20068;-87
2024/03/29 01:15:28;;;;;;;4.25;2.25;;;11.40;99.90;;;;;;5012161;28;20026;-84
2024/03/29 01:17:53;;;;;;;4.10;2.97;;;11.40;99.90;;;;;;5011116;28;20374;-83
2024/03/29 01:20:19;;;;;;;4.20;2.25;;;11.40;99.90;;;;;;5010719;28;20573;-84
2024/03/29 01:22:44;;;;;;;3.17;1.90;;;11.40;99.90;;;;;;5010054;28;20034;-85
2024/03/29 01:25:11;;;;;;;6.20;2.17;;;11.40;99.90;;;;;;5010810;28;20112;-84
2024/03/29 01:27:37;;;;;;;3.97;2.28;;;11.40;99.90;;;;;;5011214;28;20156;-84
2024/03/29 01:30:03;;;;;;;5.53;2.53;;;11.40;99.90;;;;;;5011792;28;20101;-85
2024/03/29 01:32:28;;;;;;;7.10;2.53;;;11.40;99.90;;;;;;5010725;28;20081;-82
2024/03/29 01:34:54;;;;;;;6.07;2.42;;;11.40;99.90;;;;;;5010739;28;20030;-84
2024/03/29 01:37:19;;;;;;;11.30;2.25;;;11.40;99.90;;;;;;5011465;28;20042;-84
2024/03/29 01:39:45;;;;;;;4.43;2.67;;;11.40;99.90;;;;;;5010248;28;20026;-84
2024/03/29 01:42:10;;;;;;;4.90;2.22;;;11.40;99.90;;;;;;5010892;28;20025;-83
2024/03/29 01:44:36;;;;;;;2.85;2.20;;;11.40;99.90;;;;;;5011948;28;20022;-84
2024/03/29 01:47:02;;;;;;;5.10;2.00;;;11.40;99.90;;;;;;5009244;28;20200;-84
2024/03/29 01:49:29;;;;;;;2.55;2.00;;;11.40;99.90;;;;;;5009744;28;20519;-83
2024/03/29 01:51:55;;;;;;;8.90;2.20;;;11.40;99.90;;;;;;5010648;28;20099;-85
2024/03/29 01:54:20;;;;;;;6.05;2.30;;;11.40;99.90;;;;;;5010279;28;20050;-83
2024/03/29 01:56:47;;;;;;;7.50;2.28;;;11.40;99.90;;;;;;5010785;28;20057;-85
2024/03/29 01:59:15;;;;;;;4.95;2.85;;;11.30;99.90;;;;;;5012026;28;20093;-84
2024/03/29 02:01:42;;;;;;;3.92;2.25;;;11.30;99.90;;;;;;5011573;28;20037;-83
2024/03/29 02:04:09;;;;;;;3.70;1.70;;;11.30;99.90;;;;;;5010971;28;20096;-84
2024/03/29 02:06:35;;;;;;;2.67;1.75;;;11.40;99.90;;;;;;5010172;28;20076;-84
2024/03/29 02:09:00;;;;;;;2.55;1.55;;;11.40;99.90;;;;;;5009622;28;20025;-83
2024/03/29 02:11:26;;;;;;;4.47;1.70;;;11.40;99.90;;;;;;5009857;28;20018;-83
2024/03/29 02:13:52;;;;;;;2.65;1.70;;;11.40;99.90;;;;;;5008693;28;20034;-84
2024/03/29 02:16:17;;;;;;;2.08;1.38;;;11.40;99.90;;;;;;5009443;28;20029;-84
2024/03/29 02:18:43;;;;;;;4.13;1.73;;;11.40;99.90;;;;;;5011388;28;20022;-85
2024/03/29 02:21:08;;;;;;;3.15;1.45;;;11.30;99.90;;;;;;5009384;28;20029;-84
2024/03/29 02:23:40;;;;;;;2.58;1.63;;;11.40;99.90;;;;;;5009991;28;20033;-84
2024/03/29 02:26:05;;;;;;;4.70;1.83;;;11.40;99.90;;;;;;5009427;28;20026;-84
2024/03/29 02:28:31;;;;;;;2.20;1.42;;;11.30;99.90;;;;;;5009127;28;20106;-83
2024/03/29 02:30:57;;;;;;;2.22;1.48;;;11.30;99.90;;;;;;5009089;28;20561;-86
2024/03/29 02:33:22;;;;;;;2.35;1.42;;;11.40;99.90;;;;;;5010482;28;20029;-86
2024/03/29 02:35:48;;;;;;;6.20;2.08;;;11.30;99.90;;;;;;5010001;28;20018;-85
2024/03/29 02:38:14;;;;;;;2.78;1.70;;;11.30;99.90;;;;;;5013091;28;20093;-83
2024/03/29 02:40:39;;;;;;;2.80;1.55;;;11.30;99.90;;;;;;5011550;28;20022;-84
2024/03/29 02:43:05;;;;;;;5.15;1.80;;;11.30;99.90;;;;;;5008789;28;20030;-85
2024/03/29 02:45:31;;;;;;;1.58;1.48;;;11.30;99.90;;;;;;5009034;28;20022;-83
2024/03/29 02:47:56;;;;;;;6.07;1.50;;;11.30;99.90;;;;;;5010522;28;20034;-85
2024/03/29 02:50:22;;;;;;;4.00;1.90;;;11.30;99.90;;;;;;5010115;28;20029;-85
2024/03/29 02:52:47;;;;;;;4.60;2.17;;;11.30;99.90;;;;;;5008902;28;20109;-85
2024/03/29 02:55:13;;;;;;;4.20;1.83;;;11.40;99.90;;;;;;5010465;28;20022;-84
2024/03/29 02:57:39;;;;;;;3.08;1.67;;;11.30;99.90;;;;;;5010758;28;20044;-84
2024/03/29 03:00:06;;;;;;;1.33;1.10;;;11.40;99.90;;;;;;5009163;28;20496;-83
2024/03/29 03:02:32;;;;;;;2.50;1.45;;;11.30;99.90;;;;;;5010561;28;20045;-84
2024/03/29 03:04:59;;;;;;;3.08;1.92;;;11.40;99.90;;;;;;5010309;28;20476;-86
2024/03/29 03:12:53;;;;;;;3.17;1.75;;;11.30;99.90;;;;;;5006079;28;20029;-84
2024/03/29 03:15:18;;;;;;;2.65;1.67;;;11.30;99.90;;;;;;5008502;28;20018;-83
2024/03/29 03:17:44;;;;;;;2.88;1.67;;;11.30;99.90;;;;;;5009183;28;20025;-84
2024/03/29 03:20:11;;;;;;;2.63;1.40;;;11.30;99.90;;;;;;5007822;28;20026;-83
2024/03/29 03:22:37;;;;;;;3.00;1.58;;;11.30;99.90;;;;;;5008771;28;20080;-85
2024/03/29 03:25:02;;;;;;;3.33;1.90;;;11.30;99.90;;;;;;5008253;28;20030;-84
2024/03/29 03:27:28;;;;;;;5.45;1.65;;;11.30;99.90;;;;;;5009977;28;20018;-83
2024/03/29 03:29:53;;;;;;;3.40;1.63;;;11.30;99.90;;;;;;5009396;28;20028;-84
2024/03/29 03:32:19;;;;;;;2.75;1.30;;;11.30;99.90;;;;;;5007425;28;20026;-84
2024/03/29 03:34:45;;;;;;;2.92;1.70;;;11.30;99.90;;;;;;5008558;28;20109;-84
2024/03/29 03:37:10;;;;;;;2.75;1.50;;;11.30;99.90;;;;;;5009885;28;20037;-84
2024/03/29 03:39:37;;;;;;;4.25;1.48;;;11.30;99.90;;;;;;5008631;28;20112;-83
2024/03/29 03:42:03;;;;;;;2.50;2.00;;;11.30;99.90;;;;;;5008855;28;20041;-83
2024/03/29 03:44:28;;;;;;;4.40;1.60;;;11.30;99.90;;;;;;5009892;28;20026;-84
2024/03/29 03:46:55;;;;;;;2.65;1.73;;;11.30;99.90;;;;;;5008496;28;20065;-82
2024/03/29 03:49:20;;;;;;;4.63;2.35;;;11.30;99.90;;;;;;5010016;28;20021;-84
2024/03/29 03:51:46;;;;;;;2.33;1.50;;;11.30;99.90;;;;;;5008822;28;20014;-84
2024/03/29 03:54:11;;;;;;;2.30;1.45;;;11.30;99.90;;;;;;5004058;28;20022;-85
2024/03/29 03:56:37;;;;;;;2.50;1.48;;;11.30;99.90;;;;;;5008113;28;20117;-84
2024/03/29 03:59:02;;;;;;;2.42;1.70;;;11.30;99.90;;;;;;5008275;28;20061;-84
2024/03/29 04:01:28;;;;;;;1.40;1.30;;;11.30;99.90;;;;;;5009804;28;20029;-86
2024/03/29 04:03:53;;;;;;;3.15;1.88;;;11.30;99.90;;;;;;5009159;28;20034;-85
2024/03/29 04:06:19;;;;;;;1.80;1.27;;;11.30;99.90;;;;;;5008446;28;20022;-82
2024/03/29 04:08:45;;;;;;;5.18;1.58;;;11.30;99.90;;;;;;5009094;28;20029;-84
2024/03/29 04:11:10;;;;;;;3.25;1.38;;;11.30;99.90;;;;;;5008465;28;20022;-83
2024/03/29 04:13:38;;;;;;;3.25;1.45;;;11.30;99.90;;;;;;5008240;28;20067;-84
2024/03/29 04:16:05;;;;;;;2.80;1.55;;;11.30;99.90;;;;;;5009089;28;20042;-84
2024/03/29 04:18:31;;;;;;;2.17;1.52;;;11.30;99.90;;;;;;5006912;28;20546;-84
2024/03/29 04:20:58;;;;;;;1.65;1.38;;;11.30;99.90;;;;;;5006932;28;20034;-85
2024/03/29 04:23:24;;;;;;;3.53;1.65;;;11.30;99.90;;;;;;5007559;28;20030;-83
2024/03/29 04:25:57;;;;;;;1.98;1.52;;;11.30;99.90;;;;;;5007336;28;20537;-83
2024/03/29 04:28:23;;;;;;;6.63;1.38;;;11.30;99.90;;;;;;5017921;28;20025;-83
2024/03/29 04:31:00;;;;;;;2.08;1.17;;;11.30;99.90;;;;;;5000340;28;20122;-84
2024/03/29 04:33:26;;;;;;;2.20;1.20;;;11.30;99.90;;;;;;5023442;28;20018;-84
2024/03/29 04:36:01;;;;;;;1.85;1.30;;;11.30;99.90;;;;;;5011961;28;20036;-84
2024/03/29 04:38:27;;;;;;;2.47;1.40;;;11.30;99.90;;;;;;5012677;28;20029;-85
2024/03/29 04:40:54;;;;;;;1.70;1.23;;;11.30;99.90;;;;;;5010667;28;20022;-83
2024/03/29 04:43:25;;;;;;;2.38;1.33;;;11.30;99.90;;;;;;5011865;28;20029;-84
2024/03/29 04:45:50;;;;;;;2.38;1.40;;;11.30;99.90;;;;;;5010818;28;20063;-84
2024/03/29 04:48:16;;;;;;;1.75;1.40;;;11.30;99.90;;;;;;5011423;28;20519;-84
2024/03/29 04:50:42;;;;;;;3.22;1.60;;;11.30;99.90;;;;;;5011818;28;20099;-85
2024/03/29 04:53:08;;;;;;;2.28;0.98;;;11.30;99.90;;;;;;5026764;28;20030;-84
2024/03/29 04:55:35;;;;;;;4.22;1.55;;;11.30;99.90;;;;;;5012685;28;20018;-83
2024/03/29 04:58:01;;;;;;;2.90;1.52;;;11.30;99.90;;;;;;5010896;28;20065;-84
2024/03/29 05:00:26;;;;;;;3.88;1.50;;;11.30;99.90;;;;;;5010179;28;20054;-84
2024/03/29 05:02:52;;;;;;;2.60;1.63;;;11.30;99.90;;;;;;5009152;28;20553;-85
2024/03/29 05:05:17;;;;;;;2.85;1.30;;;11.30;99.90;;;;;;5007108;28;20105;-84
2024/03/29 05:07:43;;;;;;;2.33;1.40;;;11.30;99.90;;;;;;5011053;28;20021;-82
2024/03/29 05:10:12;;;;;;;2.63;1.33;;;11.30;99.90;;;;;;5010986;28;20026;-84
2024/03/29 05:12:37;;;;;;;2.35;1.40;;;11.30;99.90;;;;;;5008912;28;20072;-82
2024/03/29 05:15:03;;;;;;;2.78;1.77;;;11.30;99.90;;;;;;5010764;28;20022;-85
2024/03/29 05:17:29;;;;;;;3.22;1.95;;;11.30;99.90;;;;;;5010458;28;20037;-82
2024/03/29 05:19:54;;;;;;;3.78;1.52;;;11.20;99.90;;;;;;5010933;28;20075;-83
2024/03/29 05:22:20;;;;;;;2.13;1.52;;;11.20;99.90;;;;;;5011009;28;20026;-82
2024/03/29 05:24:46;;;;;;;1.95;1.15;;;11.30;99.90;;;;;;5009898;28;20032;-83
2024/03/29 05:27:12;;;;;;;2.58;1.77;;;11.30;99.90;;;;;;5010444;28;20436;-84
2024/03/29 05:29:37;;;;;;;2.20;1.70;;;11.20;99.90;;;;;;5010599;28;20022;-81
2024/03/29 05:32:04;;;;;;;2.15;1.50;;;11.30;99.90;;;;;;5011199;28;20076;-84
2024/03/29 05:34:30;;;;;;;4.45;1.60;;;11.30;99.90;;;;;;5010859;28;20480;-82
2024/03/29 05:36:55;;;;;;;2.40;1.63;;;11.30;99.90;;;;;;5012402;28;20033;-83
2024/03/29 05:39:21;;;;;;;3.03;1.75;;;11.30;99.90;;;;;;5010541;28;20057;-83
2024/03/29 05:41:46;;;;;;;2.92;1.50;;;11.30;99.90;;;;;;5010371;28;20061;-84
2024/03/29 05:44:13;;;;;;;2.38;1.67;;;11.30;99.90;;;;;;5011396;28;20084;-84
2024/03/29 05:46:40;;;;;;;2.17;1.70;;;11.30;99.90;;;;;;5009353;28;20026;-83
2024/03/29 05:49:05;;;;;;;2.35;1.38;;;11.30;99.90;;;;;;5009638;28;20029;-83
2024/03/29 05:51:31;;;;;;;1.88;1.35;;;11.30;99.90;;;;;;5010667;28;20037;-84
2024/03/29 05:53:57;;;;;;;4.65;1.60;;;11.30;99.90;;;;;;5009743;28;20034;-83
2024/03/29 05:56:22;;;;;;;3.17;1.70;;;11.30;99.90;;;;;;5010350;28;20030;-83
2024/03/29 05:58:48;;;;;;;3.08;1.73;;;11.30;99.90;;;;;;5010251;28;20018;-82
2024/03/29 06:01:13;;;;;;;2.50;1.73;;;11.30;99.90;;;;;;5008836;28;20026;-83
2024/03/29 06:03:39;;;;;;;1.80;1.45;;;11.30;99.90;;;;;;5011584;28;20116;-85
2024/03/29 06:06:05;;;;;;;3.97;1.80;;;11.30;99.90;;;;;;5010378;28;20026;-84
2024/03/29 06:08:30;;;;;;;2.28;1.60;;;11.30;99.90;;;;;;5010128;28;20028;-84
2024/03/29 06:10:57;;;;;;;7.72;2.20;;;11.60;99.90;;;;;;5009836;28;20542;-85
2024/03/29 06:18:51;;;;;;;2.53;1.60;;;11.40;99.90;;;;;;5008791;28;20068;-85
2024/03/29 06:21:16;;;;;;;5.93;1.88;;;11.40;99.90;;;;;;5008695;28;20022;-83
2024/03/29 06:23:42;;;;;;;1.83;1.55;;;11.30;99.90;;;;;;5008285;28;20022;-84
2024/03/29 06:26:07;;;;;;;2.72;1.60;;;11.30;99.90;;;;;;5005296;28;20026;-83
2024/03/29 06:28:33;;;;;;;4.47;2.13;;;11.30;99.90;;;;;;5010763;28;20022;-85
2024/03/29 06:31:00;;;;;;;4.28;1.45;;;11.30;99.90;;;;;;5006287;28;20036;-84
2024/03/29 06:33:25;;;;;;;3.17;1.95;;;11.30;99.90;;;;;;5010999;28;20025;-82
2024/03/29 06:35:55;;;;;;;1.73;1.58;;;11.30;99.90;;;;;;5010021;28;20030;-84
2024/03/29 06:38:20;;;;;;;3.50;1.60;;;11.30;99.90;;;;;;5010314;28;20102;-84
2024/03/29 06:40:46;;;;;;;5.95;2.03;;;11.30;99.90;;;;;;5010712;28;20567;-84
2024/03/29 06:43:12;;;;;;;2.80;1.70;;;11.30;99.90;;;;;;5009166;28;20507;-83
2024/03/29 06:45:42;;;;;;;1.88;1.48;;;11.30;99.90;;;;;;5009010;28;20057;-82
2024/03/29 06:48:08;;;;;;;1.77;1.40;;;11.30;99.90;;;;;;5010060;28;20014;-82
2024/03/29 06:50:34;;;;;;;2.33;1.65;;;11.30;99.90;;;;;;5009418;28;20033;-81
2024/03/29 06:53:00;;;;;;;1.67;1.58;;;11.30;99.90;;;;;;5009156;28;20018;-82
2024/03/29 06:55:26;;;;;;;2.30;1.58;;;11.30;99.90;;;;;;5008436;28;20578;-84
2024/03/29 06:57:51;;;;;;;2.22;1.45;;;11.30;99.90;;;;;;5009040;28;20084;-82
2024/03/29 07:00:17;;;;;;;3.10;1.88;;;11.30;99.90;;;;;;5009093;28;20026;-84
2024/03/29 07:02:43;;;;;;;2.63;1.75;;;11.30;99.90;;;;;;5018867;28;20036;-83
2024/03/29 07:05:11;;;;;;;2.08;1.45;;;11.40;99.90;;;;;;5015025;28;20029;-82
2024/03/29 07:07:37;;;;;;;3.05;1.63;;;11.40;99.90;;;;;;5013820;28;20025;-84
2024/03/29 07:10:03;;;;;;;4.50;2.00;;;11.30;99.90;;;;;;5008576;28;20033;-84
2024/03/29 07:12:28;;;;;;;3.20;1.80;;;11.40;99.90;;;;;;5010232;28;20028;-82
2024/03/29 07:14:54;;;;;;;5.05;2.03;;;11.40;99.90;;;;;;5010066;28;20021;-83
2024/03/29 07:17:19;;;;;;;3.47;1.90;;;11.40;99.90;;;;;;5010254;28;20108;-84
2024/03/29 07:19:45;;;;;;;5.00;2.00;;;11.40;99.90;;;;;;5008788;28;20033;-83
2024/03/29 07:22:10;;;;;;;3.78;1.85;;;11.40;99.90;;;;;;5008612;28;20037;-83
2024/03/29 07:24:36;;;;;;;3.30;1.75;;;11.40;99.90;;;;;;5008647;28;20080;-84
2024/03/29 07:27:02;;;;;;;2.13;1.40;;;11.40;99.90;;;;;;5008775;28;20077;-82
2024/03/29 07:29:27;;;;;;;1.73;1.50;;;11.40;99.90;;;;;;5008626;28;20029;-83
2024/03/29 07:31:53;;;;;;;2.40;1.73;;;11.30;99.90;;;;;;5009764;28;20107;-84
2024/03/29 07:34:19;;;;;;;3.00;1.35;;;11.30;99.90;;;;;;5009601;28;20115;-83
2024/03/29 07:36:45;;;;;;;2.45;1.75;;;11.30;99.90;;;;;;5009175;28;20029;-82
2024/03/29 07:39:10;;;;;;;1.88;1.40;;;11.30;99.90;;;;;;5009446;28;20033;-82
2024/03/29 07:41:36;;;;;;;2.45;1.23;;;11.30;99.90;;;;;;5010145;28;20026;-84
2024/03/29 07:44:04;;;;;;;5.00;2.22;;;11.30;99.90;;;;;;5009616;28;20105;-83
2024/03/29 07:46:34;;;;;;;2.35;1.65;;;11.30;99.90;;;;;;5008240;28;20032;-83
2024/03/29 07:49:00;;;;;;;1.80;1.45;;;11.40;99.90;;;;;;5008234;28;20396;-83
2024/03/29 07:51:25;;;;;;;3.45;1.92;;;11.40;99.90;;;;;;5008604;28;20080;-85
2024/03/29 07:53:51;;;;;;;1.77;1.52;;;11.40;99.90;;;;;;5008459;28;20026;-84
2024/03/29 07:56:17;;;;;;;2.65;1.27;;;11.50;99.90;;;;;;5009849;28;20022;-84
2024/03/29 07:58:44;;;;;;;3.42;1.40;;;11.60;99.90;;;;;;5008311;28;20495;-83
2024/03/29 08:01:09;;;;;;;1.67;1.33;;;11.60;99.90;;;;;;5009200;28;20030;-82
2024/03/29 08:03:36;;;;;;;1.85;1.30;;;11.60;99.90;;;;;;5005827;28;20081;-84
2024/03/29 08:06:05;;;;;;;1.58;1.23;;;11.60;99.90;;;;;;5008275;28;20033;-84
2024/03/29 08:08:32;;;;;;;1.80;1.37;;;11.70;99.90;;;;;;5009547;28;20022;-85
2024/03/29 08:10:58;;;;;;;1.20;1.10;;;11.70;99.90;;;;;;5012308;28;20034;-83
2024/03/29 08:13:26;;;;;;;2.33;1.33;;;11.80;99.90;;;;;;5011995;28;20049;-82
2024/03/29 08:16:01;;;;;;;1.65;1.20;;;11.90;99.90;;;;;;5011460;28;20057;-84
2024/03/29 08:18:28;;;;;;;1.42;1.30;;;12.00;99.90;;;;;;5010990;28;20040;-85
2024/03/29 08:20:58;;;;;;;0.88;0.88;;;12.10;99.90;;;;;;5013459;28;20050;-85
2024/03/29 08:23:24;;;;;;;;;;;12.10;99.90;;;;;;5012713;28;20061;-85
2024/03/29 08:25:51;;;;;;;1.02;1.02;;;12.20;99.90;;;;;;5013624;28;19905;-82
2024/03/29 08:28:20;;;;;;;1.45;1.05;;;12.20;99.90;;;;;;5012047;28;20029;-85
2024/03/29 08:30:45;;;;;;;1.77;1.20;;;12.30;99.90;;;;;;5013054;28;20044;-84
2024/03/29 08:33:12;;;;;;;1.67;0.88;;;12.40;99.90;;;;;;5013408;28;20492;-84
2024/03/29 08:35:39;;;;;;;2.53;1.15;;;12.50;99.90;;;;;;5010733;28;20450;-83
2024/03/29 08:38:05;;;;;;;1.73;1.20;;;12.60;99.90;;;;;;5012394;28;20059;-86
2024/03/29 08:40:32;;;;;;;2.05;1.00;;;12.60;99.90;;;;;;5012072;28;20018;-86
2024/03/29 08:42:57;;;;;;;1.50;1.10;;;12.60;99.90;;;;;;5011636;28;20112;-85
2024/03/29 08:45:23;;;;;;;2.00;1.00;;;12.50;99.90;;;;;;5010411;28;20560;-84
2024/03/29 08:47:49;;;;;;;5.38;1.17;;;12.50;99.90;;;;;;5011298;28;20064;-83
2024/03/29 08:50:14;;;;;;;4.75;1.17;;;12.50;99.90;;;;;;5009014;28;20384;-84
2024/03/29 08:52:40;;;;;;;1.88;1.20;;;12.50;99.90;;;;;;5012676;28;20037;-83
2024/03/29 08:55:07;;;;;;;1.58;0.93;;;12.40;99.90;;;;;;5011408;28;20029;-83
2024/03/29 08:57:32;;;;;;;1.52;1.10;;;12.40;99.90;;;;;;5011230;28;20415;-84
2024/03/29 08:59:58;;;;;;;2.08;1.63;;;12.30;99.90;;;;;;5010394;28;20500;-83
2024/03/29 09:02:24;;;;;;;1.58;1.00;;;12.20;99.90;;;;;;5012395;28;20035;-83
2024/03/29 09:04:49;;;;;;;1.83;1.45;;;12.20;99.90;;;;;;5011039;28;20542;-83
2024/03/29 09:07:15;;;;;;;1.73;1.05;;;12.30;99.90;;;;;;5010244;28;20029;-86
2024/03/29 09:09:41;;;;;;;1.75;1.20;;;12.50;99.90;;;;;;5012610;28;20064;-84
2024/03/29 09:12:08;;;;;;;1.60;1.10;;;12.60;99.90;;;;;;5012267;28;20018;-83
2024/03/29 09:14:33;;;;;;;1.17;1.00;;;12.70;99.90;;;;;;5012196;28;20022;-83
2024/03/29 09:16:59;;;;;;;1.60;1.10;;;12.70;99.90;;;;;;5012137;28;20029;-84
2024/03/29 09:19:25;;;;;;;1.50;1.02;;;12.60;99.90;;;;;;5010132;28;20095;-83
2024/03/29 09:21:50;;;;;;;1.20;1.10;;;12.60;99.90;;;;;;5012352;28;20439;-83
2024/03/29 09:24:17;;;;;;;1.95;1.00;;;12.50;99.90;;;;;;5010528;28;20026;-85
2024/03/29 09:26:43;;;;;;;2.60;1.27;;;12.50;99.90;;;;;;5012230;28;20060;-84
2024/03/29 09:29:09;;;;;;;2.65;1.15;;;12.40;99.90;;;;;;5011932;28;20496;-83
2024/03/29 09:31:35;;;;;;;2.08;1.08;;;12.40;99.90;;;;;;5012065;28;20045;-83
2024/03/29 09:34:00;;;;;;;1.40;0.98;;;12.40;99.90;;;;;;5012635;28;20018;-84
2024/03/29 09:36:26;;;;;;;2.60;1.13;;;12.40;99.90;;;;;;5011443;28;20561;-85
2024/03/29 09:38:52;;;;;;;1.42;0.95;;;12.30;99.90;;;;;;5013278;28;20108;-84
2024/03/29 09:41:19;;;;;;;2.08;1.25;;;12.20;99.90;;;;;;5010441;28;20396;-82
2024/03/29 09:43:51;;;;;;;1.30;1.20;;;12.10;99.90;;;;;;5011896;28;20033;-83
2024/03/29 09:46:17;;;;;;;1.15;1.05;;;12.10;99.90;;;;;;5007659;28;20034;-83
2024/03/29 09:48:47;;;;;;;1.27;1.10;;;12.10;99.90;;;;;;5010583;28;20113;-84
2024/03/29 09:51:14;;;;;;;1.63;1.30;;;12.00;99.90;;;;;;5011774;28;20157;-83
2024/03/29 09:53:41;;;;;;;1.20;1.00;;;12.00;99.90;;;;;;5011431;28;20030;-84
2024/03/29 09:56:07;;;;;;;1.85;1.17;;;12.00;99.90;;;;;;5010165;28;20029;-82
2024/03/29 09:58:33;;;;;;;1.23;1.13;;;11.90;99.90;;;;;;5013314;28;20014;-83
2024/03/29 10:01:00;;;;;;;1.42;1.20;;;11.90;99.90;;;;;;5011390;28;20044;-84
2024/03/29 10:03:29;;;;;;;1.70;1.50;;;11.80;99.90;;;;;;5009927;28;20052;-82
2024/03/29 10:05:59;;;;;;;2.05;1.60;;;11.80;99.90;;;;;;5011278;28;20018;-83
2024/03/29 10:08:30;;;;;;;1.30;1.20;;;11.80;99.90;;;;;;5009628;28;20387;-82
2024/03/29 10:10:56;;;;;;;3.75;1.30;;;11.80;99.90;;;;;;5009990;28;20474;-84
2024/03/29 10:13:22;;;;;;;2.75;1.40;;;11.80;99.90;;;;;;5011794;28;20024;-83
2024/03/29 10:15:53;;;;;;;1.55;1.25;;;11.70;99.90;;;;;;5009749;28;20113;-85
2024/03/29 10:18:22;;;;;;;2.85;1.60;;;11.70;99.90;;;;;;5008738;28;20408;-84
2024/03/29 10:21:01;;;;;;;3.63;1.63;;;11.70;99.90;;;;;;5010890;28;20075;-83
2024/03/29 10:23:27;;;;;;;2.15;1.60;;;11.70;99.90;;;;;;5010382;28;20030;-84
2024/03/29 10:25:53;;;;;;;3.35;1.30;;;11.80;99.90;;;;;;5009878;28;20030;-83
2024/03/29 10:28:19;;;;;;;1.38;1.27;;;11.70;99.90;;;;;;5009769;28;20518;-85
2024/03/29 10:30:44;;;;;;;2.40;1.70;;;11.70;99.90;;;;;;5010746;28;20040;-82
2024/03/29 10:33:10;;;;;;;2.28;1.17;;;11.70;99.90;;;;;;5011222;28;20076;-81
2024/03/29 10:35:36;;;;;;;4.50;1.40;;;11.70;99.90;;;;;;5009486;28;20029;-83
2024/03/29 10:38:04;;;;;;;2.78;1.50;;;11.70;99.90;;;;;;5009846;28;20109;-83
2024/03/29 10:40:30;;;;;;;16.38;1.55;;;11.70;99.90;;;;;;5010733;28;20140;-85
2024/03/29 10:42:57;;;;;;;3.35;1.13;;;11.70;99.90;;;;;;5008177;28;20129;-83
2024/03/29 10:45:23;;;;;;;1.77;1.38;;;11.70;99.90;;;;;;5008977;28;20080;-85
2024/03/29 10:47:52;;;;;;;1.77;1.55;;;11.70;99.90;;;;;;5008118;28;20018;-83
2024/03/29 10:50:19;;;;;;;2.17;1.60;;;11.70;99.90;;;;;;5009709;28;20037;-82
2024/03/29 10:52:45;;;;;;;1.90;1.42;;;11.70;99.90;;;;;;5008274;28;20065;-85
2024/03/29 10:55:11;;;;;;;2.38;1.60;;;11.70;99.90;;;;;;5009562;28;20674;-83
2024/03/29 10:57:41;;;;;;;3.97;2.03;;;11.70;99.90;;;;;;5009057;28;20117;-85
2024/03/29 11:00:21;;;;;;;1.98;1.35;;;11.80;99.90;;;;;;5014291;28;20056;-82
2024/03/29 11:02:55;;;;;;;2.27;1.60;;;11.80;99.90;;;;;;5023184;28;20109;-83
2024/03/29 11:05:22;;;;;;;3.03;1.90;;;11.80;99.90;;;;;;5007318;28;20680;-83
2024/03/29 11:07:49;;;;;;;2.50;1.67;;;11.90;99.90;;;;;;5010112;28;20025;-84
2024/03/29 11:10:24;;;;;;;3.38;2.13;;;11.90;99.90;;;;;;5010039;28;20014;-82
2024/03/29 11:13:18;;;;;;;2.13;1.73;;;12.00;99.90;;;;;;5006614;28;20080;-85
2024/03/29 11:15:47;;;;;;;2.67;1.95;;;12.00;99.90;;;;;;5021575;28;20029;-86
2024/03/29 11:18:19;;;;;;;9.68;1.30;;;12.10;99.90;;;;;;5009438;28;20089;-85
2024/03/29 11:20:50;;;;;;;1.67;1.25;;;12.30;99.90;;;;;;5009669;28;20026;-86
2024/03/29 11:23:17;;;;;;;3.30;1.92;;;12.40;99.90;;;;;;5009523;28;20117;-80
2024/03/29 11:25:45;;;;;;;1.30;1.20;;;12.50;99.90;;;;;;5010212;28;20045;-82
2024/03/29 11:28:21;;;;;;;2.53;1.60;;;12.40;99.90;;;;;;5008314;28;20026;-80
2024/03/29 11:30:47;;;;;;;2.42;1.20;;;12.50;99.90;;;;;;5025377;28;20121;-81
2024/03/29 11:33:30;;;;;;;1.80;1.50;;;12.50;99.90;;;;;;5010124;28;20088;-80
2024/03/29 11:35:56;;;;;;;1.40;1.30;;;12.50;99.90;;;;;;5023111;28;20030;-81
2024/03/29 11:38:24;;;;;;;1.60;1.30;;;12.50;99.90;;;;;;5010075;28;20738;-81
2024/03/29 11:41:05;;;;;;;5.45;1.63;;;12.50;99.90;;;;;;5009783;28;20049;-80
2024/03/29 11:43:32;;;;;;;1.33;1.23;;;12.40;99.90;;;;;;5007015;28;20456;-80
2024/03/29 11:46:00;;;;;;;1.63;1.30;;;12.40;99.90;;;;;;5007403;28;20056;-82
2024/03/29 11:48:27;;;;;;;1.90;1.40;;;12.40;99.90;;;;;;5009299;28;20439;-81
2024/03/29 11:50:53;;;;;;;2.15;1.45;;;12.40;99.90;;;;;;5008509;28;20431;-81
2024/03/29 11:53:20;;;;;;;4.70;1.17;;;12.60;99.90;;;;;;5008463;28;20014;-82
2024/03/29 11:55:47;;;;;;;2.83;1.77;;;12.70;99.90;;;;;;5009451;28;20053;-83
2024/03/29 11:58:13;;;;;;;1.90;1.35;;;12.80;99.90;;;;;;5005780;28;20017;-83
2024/03/29 12:00:39;;;;;;;2.38;1.60;;;12.80;99.90;;;;;;5008740;28;20072;-83
2024/03/29 12:03:05;;;;;;;3.13;1.55;;;12.70;99.90;;;;;;5024188;28;20058;-83
2024/03/29 12:05:30;;;;;;;2.38;1.63;;;12.60;99.90;;;;;;5008209;28;20034;-84
2024/03/29 12:07:58;;;;;;;1.55;1.45;;;12.60;99.90;;;;;;5007390;28;20026;-81
2024/03/29 12:10:30;;;;;;;3.03;1.50;;;12.50;99.90;;;;;;5009212;28;20022;-82
2024/03/29 12:13:00;;;;;;;1.98;1.60;;;12.50;99.90;;;;;;5007743;28;20030;-81
2024/03/29 12:15:27;;;;;;;2.35;1.70;;;12.50;99.90;;;;;;5007286;28;20045;-83
2024/03/29 12:17:55;;;;;;;4.63;1.50;;;12.40;99.90;;;;;;5008470;28;20018;-82
2024/03/29 12:20:20;;;;;;;2.75;1.30;;;12.40;99.90;;;;;;5009531;28;20387;-80
2024/03/29 12:22:46;;;;;;;1.42;1.33;;;12.40;99.90;;;;;;5007416;28;20097;-81
2024/03/29 12:25:12;;;;;;;2.45;1.60;;;12.30;99.90;;;;;;5008411;28;20484;-81
2024/03/29 12:27:38;;;;;;;3.13;1.48;;;12.30;99.90;;;;;;5009200;28;20454;-81
2024/03/29 12:30:05;;;;;;;4.30;1.30;;;12.40;99.90;;;;;;5007833;28;20022;-82
2024/03/29 12:32:33;;;;;;;3.17;1.88;;;12.40;99.90;;;;;;5006838;28;20101;-81
2024/03/29 12:35:14;;;;;;;4.45;1.88;;;12.50;99.90;;;;;;5006412;28;20036;-80
2024/03/29 12:37:49;;;;;;;2.08;1.50;;;12.50;99.90;;;;;;5006835;28;20048;-81
2024/03/29 12:40:21;;;;;;;2.28;1.77;;;12.50;99.90;;;;;;5004711;28;20113;-80
2024/03/29 12:42:47;;;;;;;2.88;2.08;;;12.50;99.90;;;;;;5008810;28;20440;-79
2024/03/29 12:45:13;;;;;;;4.53;2.05;;;12.50;99.90;;;;;;5009568;28;20036;-80
2024/03/29 12:47:39;;;;;;;3.13;1.73;;;12.50;99.90;;;;;;5007809;28;20396;-80
2024/03/29 12:50:05;;;;;;;2.83;1.40;;;12.50;99.90;;;;;;5007269;28;20510;-79
2024/03/29 12:52:41;;;;;;;2.28;1.70;;;12.50;99.90;;;;;;5006048;28;20014;-79
2024/03/29 12:55:08;;;;;;;2.80;1.80;;;12.50;99.90;;;;;;5008007;28;20030;-80